Time;durP1;ratioP1;P1;durP2;ratioP2;P2;SDS_P1;SDS_P2;PMS_P1;PMS_P2;Temp;Humidity;BMP_temperature;BMP_pressure;BME280_temperature;BME280_humidity;BME280_pressure;Samples;Min_cycle;Max_cycle;Signal;HPM_P1;HPM_P2
2022/05/28 00:01:33;;;;;;;0.50;0.40;;;;;;;11.47;55.10;99761.04;104078;1281;95254;-70
2022/05/28 00:04:04;;;;;;;0.40;0.40;;;;;;;11.43;54.86;99758.88;104157;1279;138398;-69
2022/05/28 00:06:35;;;;;;;0.50;0.40;;;;;;;11.36;55.12;99757.58;104370;1279;109990;-70
2022/05/28 00:09:04;;;;;;;0.50;0.40;;;;;;;11.32;55.39;99760.73;104070;1279;138955;-69
2022/05/28 00:11:38;;;;;;;0.50;0.40;;;;;;;11.35;55.45;99764.18;104113;1279;108950;-71
2022/05/28 00:14:08;;;;;;;0.50;0.40;;;;;;;11.33;55.55;99764.27;103982;1279;139245;-71
2022/05/28 00:16:36;;;;;;;0.40;0.40;;;;;;;11.36;55.49;99764.69;104235;1279;97181;-70
2022/05/28 00:19:06;;;;;;;0.40;0.40;;;;;;;11.34;55.51;99765.66;104346;1279;109690;-71
2022/05/28 00:21:34;;;;;;;0.40;0.40;;;;;;;11.31;55.57;99767.34;104015;1279;138181;-70
2022/05/28 00:24:02;;;;;;;0.40;0.40;;;;;;;11.30;55.68;99769.69;104089;1279;109096;-70
2022/05/28 00:26:30;;;;;;;0.50;0.40;;;;;;;11.29;55.76;99774.71;104047;1279;136983;-69
2022/05/28 00:28:58;;;;;;;0.40;0.40;;;;;;;11.28;55.93;99776.20;104097;1279;95485;-69
2022/05/28 00:31:26;;;;;;;0.40;0.40;;;;;;;11.28;56.15;99773.52;104100;1279;110718;-71
2022/05/28 00:33:54;;;;;;;0.40;0.40;;;;;;;11.28;56.02;99776.89;104011;1279;138281;-69
2022/05/28 00:36:22;;;;;;;0.40;0.40;;;;;;;11.26;56.01;99776.28;104081;1279;109096;-70
2022/05/28 00:38:50;;;;;;;0.40;0.40;;;;;;;11.19;56.03;99776.51;103984;1279;139164;-69
2022/05/28 00:41:18;;;;;;;0.40;0.40;;;;;;;11.18;56.23;99772.14;104199;1279;95742;-70
2022/05/28 00:43:46;;;;;;;0.50;0.40;;;;;;;11.17;56.28;99770.73;104013;1279;138853;-70
2022/05/28 00:46:18;;;;;;;0.40;0.40;;;;;;;11.24;56.23;99762.85;104073;1279;99260;-71
2022/05/28 00:48:50;;;;;;;0.40;0.40;;;;;;;11.25;56.44;99759.44;104088;1279;108958;-68
2022/05/28 00:51:24;;;;;;;0.40;0.40;;;;;;;11.20;56.36;99756.92;103420;1279;138745;-69
2022/05/28 00:53:56;;;;;;;0.40;0.40;;;;;;;11.18;56.31;99758.77;103544;1279;95644;-69
2022/05/28 00:56:24;;;;;;;0.40;0.30;;;;;;;11.13;56.59;99756.16;103997;1279;138449;-71
2022/05/28 00:58:53;;;;;;;0.50;0.40;;;;;;;11.06;56.88;99752.52;104521;1279;99412;-71
2022/05/28 01:01:26;;;;;;;0.40;0.30;;;;;;;11.07;56.96;99750.51;104153;1279;107776;-70
2022/05/28 01:04:19;;;;;;;0.50;0.40;;;;;;;11.15;56.65;99752.18;103935;1279;139238;-71
2022/05/28 01:07:03;;;;;;;0.40;0.30;;;;;;;11.14;56.68;99752.38;104154;1279;95620;-70
2022/05/28 01:09:44;;;;;;;0.40;0.40;;;;;;;11.14;56.68;99746.33;104036;1279;138543;-71
2022/05/28 01:12:23;;;;;;;0.40;0.40;;;;;;;11.14;56.77;99746.00;104109;1281;99439;-68
2022/05/28 01:15:08;;;;;;;0.50;0.40;;;;;;;11.10;56.88;99745.60;103967;1281;139382;-70
2022/05/28 01:17:43;;;;;;;0.50;0.40;;;;;;;11.07;56.90;99748.41;104098;1279;95230;-69
2022/05/28 01:20:26;;;;;;;0.40;0.40;;;;;;;11.02;57.10;99745.92;104029;1279;138121;-71
2022/05/28 01:23:03;;;;;;;0.50;0.40;;;;;;;10.97;57.16;99743.80;104092;1279;110300;-70
2022/05/28 01:26:02;;;;;;;0.50;0.40;;;;;;;10.90;57.65;99748.16;104140;1279;98793;-70
2022/05/28 01:28:39;;;;;;;0.50;0.50;;;;;;;10.85;57.55;99744.44;104093;1279;109207;-70
2022/05/28 01:31:09;;;;;;;0.40;0.40;;;;;;;10.90;57.59;99736.98;104300;1278;95579;-70
2022/05/28 01:33:41;;;;;;;0.40;0.40;;;;;;;10.96;57.46;99738.86;104279;1281;138240;-69
2022/05/28 01:36:12;;;;;;;0.50;0.40;;;;;;;10.97;57.42;99743.45;104221;1279;110564;-70
2022/05/28 01:38:43;;;;;;;0.40;0.40;;;;;;;10.96;57.37;99733.54;103984;1279;138040;-70
2022/05/28 01:41:13;;;;;;;0.40;0.40;;;;;;;10.92;57.46;99734.39;104006;1281;108661;-70
2022/05/28 01:43:44;;;;;;;0.50;0.40;;;;;;;10.86;57.70;99733.20;104015;1281;95182;-69
2022/05/28 01:46:14;;;;;;;0.40;0.40;;;;;;;10.85;57.71;99735.17;104182;1279;95231;-69
2022/05/28 01:48:45;;;;;;;0.40;0.40;;;;;;;10.85;57.65;99733.25;104091;1280;110178;-71
2022/05/28 01:51:16;;;;;;;0.40;0.40;;;;;;;10.86;57.63;99730.73;103976;1279;138750;-70
2022/05/28 01:56:31;;;;;;;0.40;0.40;;;;;;;10.83;57.90;99727.64;103927;1281;138979;-70
2022/05/28 01:58:59;;;;;;;0.40;0.40;;;;;;;10.87;57.86;99729.63;104116;1279;95740;-68
2022/05/28 02:01:27;;;;;;;0.40;0.40;;;;;;;10.94;57.88;99728.99;104060;1280;110014;-71
2022/05/28 02:04:01;;;;;;;0.40;0.40;;;;;;;10.96;57.68;99727.14;103995;1279;138440;-69
2022/05/28 02:06:29;;;;;;;0.40;0.40;;;;;;;10.98;57.55;99723.16;104119;1279;107797;-69
2022/05/28 02:08:57;;;;;;;0.40;0.40;;;;;;;10.95;57.78;99719.36;104017;1279;138292;-71
2022/05/28 02:11:30;;;;;;;0.40;0.40;;;;;;;10.90;57.78;99714.40;104155;1279;95331;-70
2022/05/28 02:14:29;;;;;;;0.40;0.40;;;;;;;10.93;57.85;99718.37;103942;1281;138656;-72
2022/05/28 02:17:19;;;;;;;0.50;0.40;;;;;;;10.93;57.83;99713.05;104112;1281;99803;-70
2022/05/28 02:20:12;;;;;;;0.50;0.40;;;;;;;10.93;57.83;99707.55;104027;1279;138383;-70
2022/05/28 02:23:17;;;;;;;0.50;0.40;;;;;;;10.85;58.16;99701.98;103273;1279;292847;-69
2022/05/28 02:26:06;;;;;;;0.40;0.40;;;;;;;10.87;58.14;99704.02;103982;1281;138881;-70
2022/05/28 02:28:35;;;;;;;0.40;0.40;;;;;;;10.87;58.06;99699.93;104115;1281;109866;-70
2022/05/28 02:31:33;;;;;;;0.40;0.40;;;;;;;10.84;58.23;99706.83;104182;1279;99410;-71
2022/05/28 02:34:02;;;;;;;0.50;0.40;;;;;;;10.83;58.46;99698.71;103863;1279;138607;-70
2022/05/28 02:36:31;;;;;;;0.50;0.40;;;;;;;10.78;58.55;99700.30;104144;1279;95826;-71
2022/05/28 02:38:58;;;;;;;0.50;0.40;;;;;;;10.85;58.42;99698.79;103984;1279;138573;-70
2022/05/28 02:41:26;;;;;;;0.40;0.30;;;;;;;10.90;58.44;99694.14;104122;1279;108695;-70
2022/05/28 02:43:54;;;;;;;0.40;0.40;;;;;;;10.91;58.27;99688.27;104061;1279;138355;-69
2022/05/28 02:46:21;;;;;;;0.40;0.40;;;;;;;10.91;58.52;99684.36;104143;1279;108906;-70
2022/05/28 02:48:50;;;;;;;0.40;0.40;;;;;;;10.95;58.51;99694.00;104060;1281;95355;-71
2022/05/28 02:51:21;;;;;;;0.50;0.40;;;;;;;10.99;58.39;99688.83;104052;1279;138285;-69
2022/05/28 02:53:51;;;;;;;0.50;0.40;;;;;;;11.04;58.17;99687.05;103543;1281;109698;-71
2022/05/28 02:56:20;;;;;;;0.40;0.40;;;;;;;11.04;58.11;99692.17;104077;1279;138735;-69
2022/05/28 02:58:48;;;;;;;0.40;0.40;;;;;;;11.11;58.09;99696.36;104066;1281;106457;-71
2022/05/28 03:01:34;;;;;;;0.40;0.40;;;;;;;11.17;57.96;99695.03;104112;1281;95735;-70
2022/05/28 03:04:05;;;;;;;0.50;0.40;;;;;;;11.21;57.86;99698.10;104074;1277;137863;-71
2022/05/28 03:06:37;;;;;;;0.40;0.40;;;;;;;11.21;57.81;99697.38;104046;1281;110145;-70
2022/05/28 03:09:07;;;;;;;0.40;0.40;;;;;;;11.23;57.77;99698.73;103954;1281;138843;-70
2022/05/28 03:11:36;;;;;;;0.50;0.40;;;;;;;11.26;57.98;99697.02;104191;1279;107820;-69
2022/05/28 03:14:05;;;;;;;0.40;0.40;;;;;;;11.25;57.87;99696.73;103956;1281;138291;-70
2022/05/28 03:16:33;;;;;;;0.40;0.40;;;;;;;11.24;57.89;99693.54;104268;1279;95230;-70
2022/05/28 03:19:00;;;;;;;0.40;0.40;;;;;;;11.20;57.96;99693.49;104053;1281;109685;-68
2022/05/28 03:21:30;;;;;;;0.40;0.40;;;;;;;11.23;57.96;99687.17;103451;1281;138896;-70
2022/05/28 03:23:58;;;;;;;0.40;0.40;;;;;;;11.28;57.92;99690.90;104149;1279;107250;-70
2022/05/28 03:26:28;;;;;;;0.50;0.40;;;;;;;11.29;57.85;99687.29;104020;1279;138835;-70
2022/05/28 03:28:57;;;;;;;0.50;0.40;;;;;;;11.33;57.73;99689.44;104182;1279;95555;-69
2022/05/28 03:31:26;;;;;;;0.40;0.40;;;;;;;11.33;57.90;99689.42;104114;1281;109890;-71
2022/05/28 03:33:56;;;;;;;0.50;0.40;;;;;;;11.30;58.04;99689.91;104071;1279;139398;-69
2022/05/28 03:36:25;;;;;;;0.40;0.40;;;;;;;11.33;57.99;99687.67;104147;1279;109243;-69
2022/05/28 03:38:53;;;;;;;0.40;0.40;;;;;;;11.27;57.79;99690.73;104075;1279;139295;-70
2022/05/28 03:41:23;;;;;;;0.50;0.40;;;;;;;11.28;57.93;99686.27;104118;1279;95226;-70
2022/05/28 03:43:50;;;;;;;0.40;0.40;;;;;;;11.34;58.02;99687.07;103895;1279;138055;-70
2022/05/28 03:46:28;;;;;;;0.40;0.40;;;;;;;11.35;58.13;99685.98;104186;1279;98814;-70
2022/05/28 03:49:00;;;;;;;0.40;0.40;;;;;;;11.31;58.03;99692.17;104066;1281;108832;-70
2022/05/28 03:51:28;;;;;;;0.40;0.40;;;;;;;11.39;58.26;99692.74;104067;1280;139569;-70
2022/05/28 03:53:56;;;;;;;0.40;0.40;;;;;;;11.47;58.36;99694.52;104113;1279;95640;-70
2022/05/28 03:56:31;;;;;;;0.40;0.40;;;;;;;11.49;58.05;99690.73;104091;1279;138669;-70
2022/05/28 03:58:59;;;;;;;0.40;0.30;;;;;;;11.48;57.99;99688.11;104091;1280;99299;-70
2022/05/28 04:01:27;;;;;;;0.40;0.40;;;;;;;11.47;58.07;99690.81;104026;1281;109086;-69
2022/05/28 04:03:55;;;;;;;0.40;0.40;;;;;;;11.46;58.21;99689.11;103983;1281;138930;-72
2022/05/28 04:06:22;;;;;;;0.50;0.30;;;;;;;11.48;58.45;99693.99;104079;1280;95351;-71
2022/05/28 04:08:50;;;;;;;0.40;0.30;;;;;;;11.44;59.08;99699.66;104058;1279;137886;-70
2022/05/28 04:11:19;;;;;;;0.40;0.40;;;;;;;11.41;59.71;99699.41;104193;1279;99476;-70
2022/05/28 04:13:47;;;;;;;0.50;0.40;;;;;;;11.39;59.78;99697.55;104031;1279;138160;-71
2022/05/28 04:16:15;;;;;;;0.40;0.40;;;;;;;11.37;60.09;99696.20;104137;1281;96114;-70
2022/05/28 04:18:43;;;;;;;0.40;0.30;;;;;;;11.32;60.05;99696.22;104186;1279;95158;-71
2022/05/28 04:21:11;;;;;;;0.50;0.40;;;;;;;11.34;60.18;99700.42;103967;1279;138875;-71
2022/05/28 04:23:39;;;;;;;0.50;0.40;;;;;;;11.35;60.22;99698.61;104100;1280;99496;-70
2022/05/28 04:26:07;;;;;;;0.40;0.40;;;;;;;11.34;59.99;99694.73;103323;1279;138799;-69
2022/05/28 04:28:34;;;;;;;0.50;0.40;;;;;;;11.38;60.15;99698.30;104050;1279;96654;-71
2022/05/28 04:31:02;;;;;;;0.40;0.40;;;;;;;11.49;60.02;99698.58;104175;1279;95898;-72
2022/05/28 04:33:30;;;;;;;0.40;0.30;;;;;;;11.54;59.59;99698.89;104064;1281;137986;-70
2022/05/28 04:35:58;;;;;;;0.40;0.40;;;;;;;11.61;59.54;99694.86;104174;1279;99402;-71
2022/05/28 04:38:26;;;;;;;0.40;0.40;;;;;;;11.67;59.50;99690.70;104005;1281;138559;-71
2022/05/28 04:40:54;;;;;;;0.40;0.40;;;;;;;11.66;59.09;99694.48;104149;1279;95785;-70
2022/05/28 04:43:21;;;;;;;0.50;0.40;;;;;;;11.70;59.17;99687.92;104091;1280;95714;-70
2022/05/28 04:45:50;;;;;;;0.40;0.40;;;;;;;11.73;58.82;99691.50;104177;1279;138951;-70
2022/05/28 04:48:17;;;;;;;0.40;0.30;;;;;;;11.78;58.80;99689.52;104166;1279;99975;-70
2022/05/28 04:50:45;;;;;;;0.40;0.30;;;;;;;11.83;58.53;99694.10;103986;1281;138243;-70
2022/05/28 04:53:13;;;;;;;0.50;0.50;;;;;;;11.85;58.17;99688.33;104205;1279;95237;-72
2022/05/28 04:55:41;;;;;;;0.50;0.50;;;;;;;11.82;57.99;99694.34;104093;1281;97521;-71
2022/05/28 04:58:11;;;;;;;0.40;0.40;;;;;;;11.86;58.25;99697.19;104202;1279;109334;-70
2022/05/28 05:00:40;;;;;;;0.50;0.50;;;;;;;11.89;57.78;99696.52;104251;1279;100046;-71
2022/05/28 05:03:08;;;;;;;0.40;0.40;;;;;;;11.90;57.91;99701.29;104001;1279;139422;-70
2022/05/28 05:05:35;;;;;;;0.40;0.40;;;;;;;11.94;57.86;99698.48;104119;1279;95585;-71
2022/05/28 05:08:04;;;;;;;0.50;0.40;;;;;;;11.94;57.62;99696.13;104063;1280;138088;-71
2022/05/28 05:10:32;;;;;;;0.50;0.40;;;;;;;11.94;57.52;99700.44;104235;1279;109951;-71
2022/05/28 05:13:00;;;;;;;0.50;0.40;;;;;;;11.97;57.43;99704.20;104051;1280;98796;-71
2022/05/28 05:15:28;;;;;;;0.40;0.40;;;;;;;12.05;57.27;99705.81;104058;1279;139174;-70
2022/05/28 05:17:56;;;;;;;0.40;0.40;;;;;;;12.10;57.01;99706.36;104067;1281;95298;-71
2022/05/28 05:20:24;;;;;;;0.50;0.40;;;;;;;12.11;56.62;99707.35;104033;1279;138211;-70
2022/05/28 05:22:54;;;;;;;0.40;0.30;;;;;;;12.13;56.69;99704.44;104188;1279;107434;-71
2022/05/28 05:25:22;;;;;;;0.40;0.30;;;;;;;12.23;56.77;99698.12;104150;1280;98903;-70
2022/05/28 05:27:49;;;;;;;0.40;0.40;;;;;;;12.27;56.33;99699.91;104038;1279;138432;-73
2022/05/28 05:30:18;;;;;;;0.40;0.40;;;;;;;12.26;56.55;99698.16;104149;1279;95247;-70
2022/05/28 05:32:46;;;;;;;0.40;0.40;;;;;;;12.27;56.42;99697.58;104126;1279;140328;-70
2022/05/28 05:35:13;;;;;;;0.40;0.40;;;;;;;12.39;56.69;99700.09;104255;1279;109435;-71
2022/05/28 05:37:41;;;;;;;0.40;0.30;;;;;;;12.53;56.59;99699.26;104190;1279;98504;-70
2022/05/28 05:40:11;;;;;;;0.40;0.30;;;;;;;12.60;56.33;99700.00;104041;1279;108917;-71
2022/05/28 05:42:38;;;;;;;0.40;0.30;;;;;;;12.61;55.65;99697.48;104362;1279;95540;-71
2022/05/28 05:45:07;;;;;;;0.40;0.40;;;;;;;12.59;55.33;99697.92;104084;1281;137931;-69
2022/05/28 05:47:35;;;;;;;0.40;0.30;;;;;;;12.60;55.35;99701.95;104186;1279;109699;-70
2022/05/28 05:50:05;;;;;;;0.40;0.30;;;;;;;12.62;55.40;99706.16;104106;1279;138450;-71
2022/05/28 05:52:33;;;;;;;0.40;0.30;;;;;;;12.61;55.42;99698.55;104030;1279;108810;-69
2022/05/28 05:55:06;;;;;;;0.40;0.30;;;;;;;12.63;55.33;99695.95;103515;1279;96959;-70
2022/05/28 05:57:34;;;;;;;0.40;0.30;;;;;;;12.66;55.45;99698.31;104339;1279;138019;-72
2022/05/28 06:00:03;;;;;;;0.40;0.30;;;;;;;12.65;55.52;99696.41;104137;1280;108321;-70
2022/05/28 06:02:31;;;;;;;0.40;0.30;;;;;;;12.64;55.51;99703.73;104213;1279;138592;-70
2022/05/28 06:04:59;;;;;;;0.40;0.30;;;;;;;12.62;55.31;99707.20;104092;1279;108843;-70
2022/05/28 06:07:27;;;;;;;0.40;0.30;;;;;;;12.63;55.08;99702.17;104135;1279;96149;-71
2022/05/28 06:09:55;;;;;;;0.40;0.30;;;;;;;12.69;54.55;99698.55;104090;1279;138430;-73
2022/05/28 06:12:22;;;;;;;0.40;0.30;;;;;;;12.74;54.07;99702.38;104195;1279;109960;-73
2022/05/28 06:14:50;;;;;;;0.40;0.30;;;;;;;12.80;53.30;99701.08;104099;1279;138025;-70
2022/05/28 06:17:18;;;;;;;0.40;0.30;;;;;;;12.87;53.07;99700.88;103904;1279;108510;-69
2022/05/28 06:19:52;;;;;;;0.40;0.30;;;;;;;12.92;52.22;99698.55;104048;1279;138428;-69
2022/05/28 06:22:20;;;;;;;0.40;0.30;;;;;;;12.95;51.66;99696.08;104075;1279;95969;-72
2022/05/28 06:24:48;;;;;;;0.40;0.30;;;;;;;12.99;52.05;99693.02;104153;1279;109774;-71
2022/05/28 06:27:15;;;;;;;0.40;0.30;;;;;;;13.08;52.13;99689.38;104063;1279;138792;-72
2022/05/28 06:29:43;;;;;;;0.40;0.30;;;;;;;13.23;51.45;99687.42;104121;1279;108768;-72
2022/05/28 06:32:11;;;;;;;0.40;0.30;;;;;;;13.29;50.76;99689.63;104057;1279;137968;-71
2022/05/28 06:34:39;;;;;;;0.40;0.30;;;;;;;13.33;50.56;99688.02;104170;1279;95247;-72
2022/05/28 06:37:08;;;;;;;0.40;0.40;;;;;;;13.41;50.35;99688.54;104162;1279;109787;-71
2022/05/28 06:39:37;;;;;;;0.40;0.30;;;;;;;13.51;50.88;99689.80;104085;1279;139222;-71
2022/05/28 06:42:05;;;;;;;0.40;0.30;;;;;;;13.41;49.14;99694.44;104145;1279;109554;-70
2022/05/28 06:44:33;;;;;;;0.40;0.30;;;;;;;13.36;49.16;99687.31;103972;1279;140805;-71
2022/05/28 06:47:03;;;;;;;0.40;0.30;;;;;;;13.49;49.74;99685.67;104087;1280;96208;-71
2022/05/28 06:49:31;;;;;;;0.40;0.30;;;;;;;13.63;49.52;99675.13;104048;1281;110010;-71
2022/05/28 06:51:59;;;;;;;0.40;0.30;;;;;;;13.66;49.12;99680.13;104139;1279;138653;-70
2022/05/28 06:54:27;;;;;;;0.40;0.30;;;;;;;13.56;48.43;99680.13;104214;1279;107504;-71
2022/05/28 06:56:55;;;;;;;0.40;0.30;;;;;;;13.47;49.01;99687.16;104118;1279;138657;-71
2022/05/28 06:59:23;;;;;;;0.40;0.30;;;;;;;13.40;48.46;99687.70;104203;1279;95654;-71
2022/05/28 07:01:51;;;;;;;0.40;0.30;;;;;;;13.29;48.70;99687.48;104126;1279;138766;-70
2022/05/28 07:04:19;;;;;;;0.40;0.30;;;;;;;13.36;48.68;99684.32;104090;1281;98157;-70
2022/05/28 07:06:47;;;;;;;0.40;0.30;;;;;;;13.44;47.72;99681.23;104178;1280;109047;-70
2022/05/28 07:09:15;;;;;;;0.40;0.30;;;;;;;13.59;46.31;99679.28;103984;1281;138762;-70
2022/05/28 07:11:43;;;;;;;0.40;0.30;;;;;;;13.86;44.90;99670.77;104150;1279;95162;-70
2022/05/28 07:14:11;;;;;;;0.40;0.30;;;;;;;14.10;45.23;99670.24;104055;1279;139058;-69
2022/05/28 07:16:38;;;;;;;0.40;0.30;;;;;;;14.23;44.29;99667.77;104048;1281;99426;-69
2022/05/28 07:19:11;;;;;;;0.40;0.30;;;;;;;14.25;44.73;99666.22;104054;1279;108809;-70
2022/05/28 07:21:39;;;;;;;0.40;0.30;;;;;;;14.39;45.10;99664.27;104051;1279;139127;-69
2022/05/28 07:24:06;;;;;;;0.40;0.30;;;;;;;14.42;44.67;99671.98;104026;1281;97003;-70
2022/05/28 07:26:34;;;;;;;0.40;0.20;;;;;;;14.37;44.70;99670.02;104020;1279;138064;-69
2022/05/28 07:29:03;;;;;;;0.40;0.30;;;;;;;14.34;45.25;99668.63;103443;1281;98570;-68
2022/05/28 07:31:31;;;;;;;0.40;0.20;;;;;;;14.28;45.07;99672.86;103365;1281;109030;-68
2022/05/28 07:33:59;;;;;;;0.40;0.30;;;;;;;14.20;46.37;99677.35;103454;1279;138498;-70
2022/05/28 07:36:27;;;;;;;0.40;0.30;;;;;;;14.17;47.00;99678.80;104161;1279;95345;-71
2022/05/28 07:38:55;;;;;;;0.40;0.30;;;;;;;14.09;46.88;99675.46;103999;1279;138576;-68
2022/05/28 07:41:26;;;;;;;0.40;0.30;;;;;;;14.07;47.06;99684.86;104170;1281;99778;-72
2022/05/28 07:43:55;;;;;;;0.40;0.30;;;;;;;14.00;46.67;99682.90;104221;1279;138610;-69
2022/05/28 07:46:26;;;;;;;0.40;0.30;;;;;;;13.96;45.91;99685.80;104128;1281;96559;-70
2022/05/28 07:48:56;;;;;;;0.40;0.30;;;;;;;14.00;46.49;99681.65;104436;1281;97121;-69
2022/05/28 07:51:24;;;;;;;0.40;0.30;;;;;;;14.18;46.23;99679.83;103582;1279;138287;-70
2022/05/28 07:53:52;;;;;;;0.40;0.30;;;;;;;14.26;44.32;99682.43;103534;1281;99447;-69
2022/05/28 07:56:20;;;;;;;0.40;0.20;;;;;;;14.24;44.31;99681.13;103521;1279;138290;-69
2022/05/28 07:58:50;;;;;;;0.40;0.30;;;;;;;14.21;44.30;99676.05;103520;1281;95733;-69
2022/05/28 08:01:24;;;;;;;0.40;0.30;;;;;;;14.34;44.52;99675.03;103543;1281;95597;-70
2022/05/28 08:03:53;;;;;;;0.40;0.30;;;;;;;14.26;43.93;99682.26;103590;1281;138555;-69
2022/05/28 08:06:22;;;;;;;0.40;0.20;;;;;;;14.13;43.79;99688.11;103626;1279;99346;-70
2022/05/28 08:08:53;;;;;;;0.40;0.30;;;;;;;13.90;43.75;99695.20;104107;1281;137867;-70
2022/05/28 08:11:21;;;;;;;0.40;0.30;;;;;;;13.87;44.94;99693.20;104237;1279;95507;-69
2022/05/28 08:13:51;;;;;;;0.40;0.30;;;;;;;14.11;45.58;99692.34;103421;1279;138387;-69
2022/05/28 08:16:19;;;;;;;0.40;0.20;;;;;;;14.28;46.16;99683.40;103465;1279;109029;-69
2022/05/28 08:18:48;;;;;;;0.40;0.30;;;;;;;14.45;45.81;99686.05;103321;1280;99538;-71
2022/05/28 08:24:03;;;;;;;0.40;0.30;;;;;;;14.81;44.42;99677.71;103472;1279;96136;-68
2022/05/28 08:26:31;;;;;;;0.40;0.20;;;;;;;15.03;44.08;99675.80;103351;1279;138793;-68
2022/05/28 08:28:59;;;;;;;0.40;0.30;;;;;;;15.09;43.68;99680.08;103435;1276;109694;-67
2022/05/28 08:31:27;;;;;;;0.40;0.30;;;;;;;15.04;43.83;99678.59;103469;1281;99325;-68
2022/05/28 08:33:56;;;;;;;0.40;0.30;;;;;;;14.97;42.66;99680.58;103315;1279;138956;-68
2022/05/28 08:36:24;;;;;;;0.40;0.30;;;;;;;14.93;41.59;99684.21;103570;1281;95187;-68
2022/05/28 08:38:52;;;;;;;0.40;0.20;;;;;;;15.00;41.61;99673.78;103488;1281;138050;-69
2022/05/28 08:41:24;;;;;;;0.40;0.30;;;;;;;15.22;41.43;99668.77;103425;1279;109717;-69
2022/05/28 08:44:13;;;;;;;0.40;0.30;;;;;;;15.48;41.50;99662.45;103427;1279;138902;-69
2022/05/28 08:46:43;;;;;;;0.40;0.20;;;;;;;15.56;41.01;99668.64;103481;1281;109317;-68
2022/05/28 08:49:14;;;;;;;0.40;0.20;;;;;;;15.53;41.45;99670.23;103649;1279;96000;-69
2022/05/28 08:52:05;;;;;;;0.40;0.20;;;;;;;15.74;41.00;99666.88;103390;1279;137976;-68
2022/05/28 08:54:36;;;;;;;0.40;0.20;;;;;;;15.97;40.34;99666.57;103503;1280;109734;-69
2022/05/28 08:57:13;;;;;;;0.40;0.20;;;;;;;16.14;39.72;99663.80;103475;1279;138416;-68
2022/05/28 08:59:50;;;;;;;0.40;0.20;;;;;;;16.25;40.11;99662.39;103579;1281;108845;-68
2022/05/28 09:02:42;;;;;;;0.40;0.20;;;;;;;16.57;39.63;99664.33;103416;1281;137297;-69
2022/05/28 09:05:20;;;;;;;0.40;0.20;;;;;;;16.77;38.90;99672.41;104189;1279;95143;-70
2022/05/28 09:07:48;;;;;;;0.40;0.20;;;;;;;16.71;38.79;99668.48;103941;1281;138154;-68
2022/05/28 09:10:16;;;;;;;0.40;0.20;;;;;;;16.93;38.55;99668.70;103367;1279;100035;-70
2022/05/28 09:12:49;;;;;;;0.40;0.20;;;;;;;17.03;38.14;99667.53;103435;1281;110141;-68
2022/05/28 09:15:17;;;;;;;0.40;0.20;;;;;;;16.75;39.07;99670.56;103185;1280;138521;-69
2022/05/28 09:17:50;;;;;;;0.40;0.20;;;;;;;16.97;38.17;99674.00;103353;1280;95199;-68
2022/05/28 09:20:27;;;;;;;0.40;0.20;;;;;;;17.35;37.84;99668.69;103191;1280;139306;-71
2022/05/28 09:22:55;;;;;;;0.40;0.10;;;;;;;17.89;37.15;99661.16;104056;1280;99613;-69
2022/05/28 09:25:30;;;;;;;0.40;0.20;;;;;;;17.92;36.17;99661.10;103495;1279;109066;-69
2022/05/28 09:28:21;;;;;;;0.40;0.10;;;;;;;18.59;35.34;99652.16;103246;1281;138150;-69
2022/05/28 09:31:11;;;;;;;0.40;0.20;;;;;;;18.49;35.38;99655.58;103418;1279;96223;-69
2022/05/28 09:33:56;;;;;;;0.40;0.20;;;;;;;19.04;35.17;99658.59;103351;1279;138520;-69
2022/05/28 09:36:50;;;;;;;0.40;0.20;;;;;;;19.74;34.34;99651.63;103587;1281;99469;-70
2022/05/28 09:39:42;;;;;;;0.40;0.20;;;;;;;20.55;33.76;99643.74;104415;1279;138888;-69
2022/05/28 09:42:45;;;;;;;0.40;0.10;;;;;;;21.74;31.34;99636.55;104144;1279;95720;-70
2022/05/28 09:45:15;;;;;;;0.40;0.20;;;;;;;21.03;29.95;99634.45;104055;1279;138496;-70
2022/05/28 09:47:48;;;;;;;0.40;0.10;;;;;;;21.81;29.26;99630.85;104268;1279;109678;-70
2022/05/28 09:50:26;;;;;;;0.40;0.10;;;;;;;22.91;28.22;99627.61;104080;1279;138731;-70
2022/05/28 09:56:17;;;;;;;0.40;0.10;;;;;;;22.01;29.52;99634.60;103934;1281;138609;-70
2022/05/28 09:58:46;;;;;;;0.40;0.10;;;;;;;20.99;31.42;99654.83;104074;1279;95139;-68
2022/05/28 10:01:21;;;;;;;0.40;0.10;;;;;;;20.00;35.64;99695.16;103522;1281;109781;-68
2022/05/28 10:06:53;;;;;;;0.40;0.10;;;;;;;17.18;44.54;99723.77;103421;1279;107894;-68
2022/05/28 10:09:23;;;;;;;0.40;0.20;;;;;;;16.32;46.42;99721.05;103366;1279;138746;-68
2022/05/28 10:11:57;;;;;;;0.40;0.20;;;;;;;15.96;47.82;99719.98;103833;1279;95236;-73
2022/05/28 10:14:30;;;;;;;0.40;0.20;;;;;;;15.64;48.74;99704.13;103518;1279;138207;-67
2022/05/28 10:17:04;;;;;;;0.40;0.20;;;;;;;15.46;48.73;99707.70;103394;1279;99771;-68
2022/05/28 10:19:41;;;;;;;0.40;0.20;;;;;;;15.26;49.77;99710.60;103395;1281;108864;-74
2022/05/28 10:22:16;;;;;;;0.40;0.20;;;;;;;15.45;49.57;99707.02;103652;1280;95680;-70
2022/05/28 10:24:51;;;;;;;0.40;0.20;;;;;;;15.87;50.04;99708.34;103420;1279;95204;-69
2022/05/28 10:27:47;;;;;;;0.40;0.30;;;;;;;15.87;50.12;99707.97;103543;1279;138067;-70
2022/05/28 10:30:37;;;;;;;0.40;0.20;;;;;;;16.38;47.96;99707.29;103354;1281;98335;-69
2022/05/28 10:33:14;;;;;;;0.40;0.20;;;;;;;16.68;47.00;99701.48;103422;1279;138202;-69
2022/05/28 10:35:43;;;;;;;0.40;0.20;;;;;;;16.93;46.44;99697.98;103095;1279;95528;-69
2022/05/28 10:38:10;;;;;;;0.40;0.20;;;;;;;16.76;45.77;99696.49;103084;1281;138347;-67
2022/05/28 10:41:02;;;;;;;0.40;0.20;;;;;;;16.50;46.08;99696.50;104179;1279;108292;-68
2022/05/28 10:43:31;;;;;;;0.40;0.20;;;;;;;16.03;46.06;99699.52;103277;1279;100633;-68
2022/05/28 10:46:31;;;;;;;0.40;0.20;;;;;;;15.74;46.89;99701.95;103438;1279;138450;-68
2022/05/28 10:49:08;;;;;;;0.40;0.20;;;;;;;15.47;48.10;99712.25;103392;1279;95243;-67
2022/05/28 10:51:46;;;;;;;0.40;0.20;;;;;;;15.24;48.68;99707.31;103297;1279;138066;-66
2022/05/28 10:54:40;;;;;;;0.40;0.30;;;;;;;15.03;49.65;99706.48;103511;1279;109819;-66
2022/05/28 10:57:08;;;;;;;0.40;0.20;;;;;;;14.95;50.88;99711.42;103264;1280;138640;-67
2022/05/28 10:59:44;;;;;;;0.40;0.20;;;;;;;14.75;50.38;99715.37;103503;1279;108561;-67
2022/05/28 11:02:40;;;;;;;0.40;0.30;;;;;;;14.46;50.26;99721.01;103336;1279;138910;-66
2022/05/28 11:05:25;;;;;;;0.40;0.20;;;;;;;14.20;49.29;99729.33;103508;1280;95325;-67
2022/05/28 11:08:24;;;;;;;0.40;0.30;;;;;;;14.01;48.85;99731.36;103481;1279;138694;-68
2022/05/28 11:10:58;;;;;;;0.40;0.30;;;;;;;13.87;48.73;99735.48;103678;1280;98458;-68
2022/05/28 11:13:49;;;;;;;0.40;0.30;;;;;;;13.72;48.90;99742.27;103419;1280;108841;-67
2022/05/28 11:16:56;;;;;;;0.40;0.30;;;;;;;13.72;49.18;99740.70;103521;1281;96053;-66
2022/05/28 11:19:36;;;;;;;0.40;0.30;;;;;;;13.86;49.31;99735.90;103390;1279;95452;-65
2022/05/28 11:22:42;;;;;;;0.40;0.30;;;;;;;14.03;48.66;99742.89;103124;1279;138326;-68
2022/05/28 11:25:22;;;;;;;0.40;0.30;;;;;;;14.27;48.13;99737.00;103172;1280;99468;-66
2022/05/28 11:28:21;;;;;;;0.40;0.30;;;;;;;14.52;48.19;99731.05;103240;1279;138138;-67
2022/05/28 11:30:55;;;;;;;0.40;0.30;;;;;;;14.53;46.59;99736.35;103459;1281;95240;-66
2022/05/28 11:33:30;;;;;;;0.40;0.40;;;;;;;14.35;45.99;99736.95;103407;1279;138613;-66
2022/05/28 11:36:08;;;;;;;0.40;0.30;;;;;;;14.19;46.59;99734.41;103893;1281;109742;-66
2022/05/28 11:38:41;;;;;;;0.40;0.30;;;;;;;14.09;47.28;99735.79;103347;1280;139127;-66
2022/05/28 11:41:25;;;;;;;0.40;0.30;;;;;;;14.17;47.65;99731.80;103928;1281;108921;-66
2022/05/28 11:43:59;;;;;;;0.40;0.30;;;;;;;14.40;47.37;99722.73;103325;1281;138795;-67
2022/05/28 11:46:39;;;;;;;0.40;0.30;;;;;;;14.56;46.86;99710.48;103864;1279;95250;-66
2022/05/28 11:52:18;;;;;;;0.40;0.30;;;;;;;14.63;46.29;99700.45;103370;1281;138253;-68
2022/05/28 11:55:01;;;;;;;0.40;0.30;;;;;;;14.67;45.88;99689.19;103493;1281;108845;-67
2022/05/28 11:57:37;;;;;;;0.40;0.30;;;;;;;14.73;45.73;99687.60;103324;1281;138889;-66
2022/05/28 12:00:07;;;;;;;0.40;0.30;;;;;;;14.78;45.54;99681.99;103269;1281;95411;-66